createdAt,value
2019-01-03T00:02:13.176Z,3.70
2019-01-03T00:04:59.212Z,3.43
2019-01-03T00:07:45.215Z,4.60
2019-01-03T00:10:44.964Z,3.60
2019-01-03T00:13:30.982Z,3.90
2019-01-03T00:18:51.127Z,3.30
2019-01-03T00:21:37.154Z,3.77
2019-01-03T00:24:23.221Z,3.20
2019-01-03T00:27:09.228Z,3.47
2019-01-03T00:29:55.286Z,4.23
2019-01-03T00:32:41.297Z,3.50
2019-01-03T00:35:27.375Z,3.30
2019-01-03T00:38:13.368Z,3.80
2019-01-03T00:40:59.408Z,3.23
2019-01-03T00:43:45.456Z,3.87
2019-01-03T00:49:05.048Z,3.77
2019-01-03T00:51:51.057Z,4.00
2019-01-03T00:54:37.132Z,4.60
2019-01-03T00:57:23.159Z,3.63
2019-01-03T01:00:09.205Z,4.03
2019-01-03T01:05:42.869Z,3.70
2019-01-03T01:08:28.876Z,3.43
2019-01-03T01:11:14.911Z,3.93
2019-01-03T01:16:48.556Z,4.13
2019-01-03T01:19:34.571Z,5.17
2019-01-03T01:22:20.647Z,4.17
2019-01-03T01:25:06.669Z,4.60
2019-01-03T01:27:52.724Z,4.00
2019-01-03T01:30:38.768Z,3.97
2019-01-03T01:35:58.547Z,3.80
2019-01-03T01:38:44.559Z,3.50
2019-01-03T01:41:30.598Z,3.70
2019-01-03T01:44:16.605Z,4.03
2019-01-03T01:47:02.641Z,4.30
2019-01-03T01:49:48.650Z,3.07
2019-01-03T01:52:34.717Z,3.93
2019-01-03T01:55:20.729Z,3.97
2019-01-03T02:01:02.361Z,3.70
2019-01-03T02:06:35.984Z,3.70
2019-01-03T02:12:29.398Z,5.33
2019-01-03T02:15:15.420Z,4.20
2019-01-03T02:33:28.618Z,3.77
2019-01-03T02:36:14.625Z,3.47
2019-01-03T02:39:00.676Z,3.37
2019-01-03T02:41:46.708Z,3.77
2019-01-03T02:44:32.761Z,4.20
2019-01-03T02:50:06.431Z,3.53
2019-01-03T02:58:17.406Z,5.90
2019-01-03T03:01:03.413Z,4.87
2019-01-03T03:03:49.476Z,5.47
2019-01-03T03:06:35.519Z,5.53
2019-01-03T03:17:07.004Z,11.27
2019-01-03T03:19:53.024Z,8.60
2019-01-03T03:22:39.104Z,7.70
2019-01-03T03:25:25.122Z,8.37
2019-01-03T03:28:11.162Z,8.23
2019-01-03T03:30:57.170Z,7.00
2019-01-03T03:33:43.233Z,8.10
2019-01-03T03:36:29.252Z,6.87
2019-01-03T03:39:15.320Z,5.30
2019-01-03T03:42:01.428Z,5.27
2019-01-03T03:47:21.531Z,4.47
2019-01-03T03:50:07.566Z,4.50
2019-01-03T03:52:53.609Z,3.57
2019-01-03T03:58:27.249Z,3.30
2019-01-03T04:01:13.276Z,5.20
2019-01-03T04:03:59.345Z,5.00
2019-01-03T04:06:45.362Z,4.90
2019-01-03T04:14:42.849Z,4.10
2019-01-03T04:20:16.500Z,4.57
2019-01-03T04:28:23.790Z,5.90
2019-01-03T04:33:57.448Z,5.17
2019-01-03T04:39:31.106Z,6.23
2019-01-03T04:42:17.109Z,5.47
2019-01-03T04:45:03.150Z,6.17
2019-01-03T04:47:49.163Z,4.77
2019-01-03T04:50:35.192Z,4.60
2019-01-03T04:53:21.196Z,4.63
2019-01-03T04:56:07.257Z,4.03
2019-01-03T04:58:53.294Z,4.97
2019-01-03T05:02:18.841Z,5.20
2019-01-03T05:05:04.871Z,4.47
2019-01-03T05:07:50.938Z,4.60
2019-01-03T05:10:36.958Z,6.53
2019-01-03T05:13:23.926Z,7.47
2019-01-03T05:16:09.924Z,7.80
2019-01-03T05:18:55.991Z,5.60
2019-01-03T05:21:42.004Z,5.60
2019-01-03T05:24:28.051Z,6.42
2019-01-03T05:30:19.644Z,6.90
2019-01-03T05:33:05.647Z,7.70
2019-01-03T05:35:51.689Z,9.73
2019-01-03T05:46:33.451Z,5.83
2019-01-03T05:49:19.460Z,6.50
2019-01-03T05:52:05.506Z,6.03
2019-01-03T05:54:51.516Z,5.83
2019-01-03T05:57:37.620Z,7.07
2019-01-03T06:03:37.683Z,5.60
2019-01-03T06:09:11.349Z,4.93
2019-01-03T06:11:57.383Z,5.83
2019-01-03T06:14:43.430Z,6.93
2019-01-03T06:17:29.441Z,8.97
2019-01-03T06:20:15.526Z,12.77
2019-01-03T06:23:01.532Z,15.83
2019-01-03T06:30:55.512Z,12.10
2019-01-03T06:33:41.518Z,18.92
2019-01-03T06:36:27.616Z,18.37
2019-01-03T06:39:13.616Z,12.37
2019-01-03T06:41:59.677Z,15.33
2019-01-03T06:44:45.681Z,10.97
2019-01-03T06:47:31.724Z,9.73
2019-01-03T06:53:25.127Z,10.90
2019-01-03T06:56:11.142Z,11.70
2019-01-03T06:58:57.178Z,9.97
2019-01-03T07:01:43.205Z,11.47
2019-01-03T07:07:06.556Z,15.07
2019-01-03T07:09:52.593Z,18.63
2019-01-03T07:12:38.653Z,20.97
2019-01-03T07:15:24.668Z,18.57
2019-01-03T07:18:10.726Z,13.67
2019-01-03T07:20:56.790Z,14.27
2019-01-03T07:23:42.843Z,15.53
2019-01-03T07:26:28.846Z,13.73
2019-01-03T07:29:15.534Z,12.43
2019-01-03T07:32:01.542Z,14.00
2019-01-03T07:34:47.580Z,15.37
2019-01-03T07:37:33.585Z,18.03
2019-01-03T07:40:19.637Z,12.50
2019-01-03T07:43:05.642Z,15.00
2019-01-03T07:45:51.693Z,11.10
2019-01-03T07:48:37.705Z,17.20
2019-01-03T07:51:23.740Z,14.13
2019-01-03T07:54:09.754Z,9.17
2019-01-03T07:56:55.842Z,13.63
2019-01-03T07:59:41.895Z,10.23
2019-01-03T08:02:27.949Z,13.23
2019-01-03T08:05:13.954Z,8.37
2019-01-03T08:07:59.989Z,9.83
2019-01-03T08:10:46.000Z,9.43
2019-01-03T08:13:32.059Z,14.47
2019-01-03T08:16:18.074Z,14.70
2019-01-03T08:19:04.119Z,14.57
2019-01-03T08:24:37.910Z,10.53
2019-01-03T08:27:23.920Z,10.30
2019-01-03T08:30:09.970Z,8.67
2019-01-03T08:35:43.628Z,9.07
2019-01-03T08:38:29.640Z,10.07
2019-01-03T08:41:15.693Z,12.17
2019-01-03T08:44:01.707Z,6.43
2019-01-03T08:46:47.754Z,9.40
2019-01-03T08:54:55.436Z,5.57
2019-01-03T08:57:41.449Z,6.83
2019-01-03T09:03:28.068Z,4.13
2019-01-03T09:06:14.077Z,8.00
2019-01-03T09:09:00.120Z,6.70
2019-01-03T09:11:46.123Z,9.17
2019-01-03T09:14:32.174Z,11.47
2019-01-03T09:22:40.234Z,7.37
2019-01-03T09:25:26.239Z,9.07
2019-01-03T09:28:12.276Z,5.30
2019-01-03T09:30:58.308Z,5.23
2019-01-03T09:33:44.356Z,9.07
2019-01-03T09:36:30.369Z,8.73
2019-01-03T09:39:16.418Z,8.77
2019-01-03T09:42:02.421Z,5.03
2019-01-03T09:44:48.517Z,7.13
2019-01-03T09:47:14.688Z,7.07
2019-01-03T09:49:40.844Z,7.17
2019-01-03T09:52:07.142Z,7.17
2019-01-03T09:54:33.297Z,8.00
2019-01-03T09:56:59.466Z,3.23
2019-01-03T09:59:25.755Z,7.70
2019-01-03T10:01:52.030Z,5.13
2019-01-03T10:04:18.188Z,7.73
2019-01-03T10:06:44.380Z,4.43
2019-01-03T10:09:30.440Z,6.67
2019-01-03T10:11:56.733Z,8.00
2019-01-03T10:14:22.894Z,8.00
2019-01-03T10:16:49.051Z,9.83
2019-01-03T10:19:15.235Z,6.57
2019-01-03T10:21:41.404Z,8.20
2019-01-03T10:24:07.572Z,9.43
2019-01-03T10:26:33.757Z,9.53
2019-01-03T10:28:59.908Z,7.03
2019-01-03T10:31:26.165Z,7.47
2019-01-03T10:33:52.343Z,7.53
2019-01-03T10:36:24.155Z,8.53
2019-01-03T10:38:46.571Z,6.03
2019-01-03T10:41:12.866Z,7.70
2019-01-03T10:43:39.145Z,8.50
2019-01-03T10:46:05.300Z,6.87
2019-01-03T10:48:31.672Z,7.00
2019-01-03T10:50:57.840Z,7.60
2019-01-03T10:53:24.005Z,5.40
2019-01-03T10:55:50.204Z,5.53
2019-01-03T10:58:16.368Z,6.97
2019-01-03T11:00:42.538Z,5.30
2019-01-03T11:03:08.730Z,5.10
2019-01-03T11:05:34.883Z,6.60
2019-01-03T11:08:01.041Z,9.60
2019-01-03T11:10:27.249Z,8.60
2019-01-03T11:12:53.408Z,6.83
2019-01-03T11:15:19.564Z,10.93
2019-01-03T11:17:45.850Z,10.27
2019-01-03T11:20:12.020Z,7.97
2019-01-03T11:22:38.173Z,7.63
2019-01-03T11:25:04.373Z,7.23
2019-01-03T11:27:30.531Z,4.63
2019-01-03T11:29:56.691Z,5.67
2019-01-03T11:32:22.878Z,6.73
2019-01-03T11:34:49.035Z,7.47
2019-01-03T11:37:15.349Z,6.97
2019-01-03T11:39:41.645Z,8.30
2019-01-03T11:42:07.811Z,8.97
2019-01-03T11:44:34.075Z,8.07
2019-01-03T11:47:00.265Z,8.10
2019-01-03T11:49:26.419Z,9.13
2019-01-03T11:54:44.554Z,7.70
2019-01-03T11:57:10.810Z,7.77
2019-01-03T11:59:36.969Z,7.43
2019-01-03T12:02:03.153Z,10.37
2019-01-03T12:04:29.312Z,13.03
2019-01-03T12:06:55.503Z,9.73
2019-01-03T12:09:21.666Z,7.87
2019-01-03T12:11:47.830Z,9.47
2019-01-03T12:14:13.985Z,11.83
2019-01-03T12:16:40.209Z,7.73
2019-01-03T12:19:06.369Z,5.33
2019-01-03T12:21:32.524Z,6.20
2019-01-03T12:23:58.702Z,5.97
2019-01-03T12:26:25.002Z,7.90
2019-01-03T12:28:51.159Z,7.73
2019-01-03T12:31:17.350Z,8.57
2019-01-03T12:33:43.599Z,11.07
2019-01-03T12:36:09.759Z,7.50
2019-01-03T12:38:35.946Z,4.00
2019-01-03T12:41:02.104Z,10.00
2019-01-03T12:43:28.259Z,9.33
2019-01-03T12:45:54.549Z,10.97
2019-01-03T12:48:20.701Z,11.33
2019-01-03T12:50:46.860Z,11.67
2019-01-03T12:53:13.045Z,12.67
2019-01-03T12:55:39.203Z,5.33
2019-01-03T12:58:05.467Z,16.67
2019-01-03T13:00:31.663Z,11.40
2019-01-03T13:02:57.819Z,12.87
2019-01-03T13:05:23.977Z,12.67
2019-01-03T13:07:50.155Z,10.77
2019-01-03T13:10:16.313Z,10.00
2019-01-03T13:12:42.469Z,14.43
2019-01-03T13:15:08.750Z,14.47
2019-01-03T13:17:34.900Z,15.23
2019-01-03T13:20:01.069Z,10.87
2019-01-03T13:22:34.016Z,14.17
2019-01-03T13:25:00.209Z,11.43
2019-01-03T13:27:26.538Z,12.27
2019-01-03T13:29:52.736Z,14.03
2019-01-03T13:32:18.896Z,8.43
2019-01-03T13:34:45.060Z,7.23
2019-01-03T13:37:11.238Z,11.53
2019-01-03T13:39:37.392Z,8.90
2019-01-03T13:42:03.711Z,12.40
2019-01-03T13:44:29.930Z,12.30
2019-01-03T13:46:56.080Z,10.57
2019-01-03T13:49:22.391Z,16.63
2019-01-03T13:51:48.668Z,13.60
2019-01-03T13:54:14.823Z,16.70
2019-01-03T13:56:41.077Z,16.63
2019-01-03T13:59:07.260Z,12.07
2019-01-03T14:01:33.416Z,13.33
2019-01-03T14:03:59.579Z,11.70
2019-01-03T14:06:25.775Z,11.63
2019-01-03T14:08:51.931Z,11.60
2019-01-03T14:11:18.088Z,13.90
2019-01-03T14:13:44.375Z,9.00
2019-01-03T14:16:10.634Z,12.33
2019-01-03T14:18:36.783Z,16.97
2019-01-03T14:21:02.971Z,10.00
2019-01-03T14:23:29.123Z,18.77
2019-01-03T14:25:55.387Z,14.50
2019-01-03T14:28:21.634Z,15.17
2019-01-03T14:30:47.780Z,9.87
2019-01-03T14:33:13.950Z,13.17
2019-01-03T14:35:40.132Z,15.00
2019-01-03T14:38:06.309Z,16.13
2019-01-03T14:40:32.463Z,15.40
2019-01-03T14:42:58.655Z,15.13
2019-01-03T14:45:24.804Z,16.40
2019-01-03T14:47:50.966Z,18.37
2019-01-03T14:50:17.437Z,17.27
2019-01-03T14:52:43.954Z,16.60
2019-01-03T14:55:10.240Z,20.37
2019-01-03T14:57:39.259Z,20.80
2019-01-03T15:00:46.844Z,23.37
2019-01-03T15:05:54.532Z,22.23
2019-01-03T15:08:20.741Z,19.03
2019-01-03T15:10:46.897Z,19.83
2019-01-03T15:13:13.071Z,24.07
2019-01-03T15:15:39.371Z,23.03
2019-01-03T15:18:05.533Z,26.40
2019-01-03T15:20:31.696Z,17.93
2019-01-03T15:22:57.878Z,22.73
2019-01-03T15:25:24.140Z,21.27
2019-01-03T15:27:50.308Z,19.73
2019-01-03T15:30:16.547Z,26.80
2019-01-03T15:32:42.714Z,21.53
2019-01-03T15:35:08.864Z,24.97
2019-01-03T15:37:35.066Z,23.43
2019-01-03T15:40:01.223Z,28.13
2019-01-03T15:42:27.392Z,22.83
2019-01-03T15:44:53.586Z,27.63
2019-01-03T15:47:19.744Z,27.97
2019-01-03T15:49:45.902Z,29.87
2019-01-03T15:52:12.103Z,34.03
2019-01-03T15:54:38.252Z,53.00
2019-01-03T15:57:04.410Z,57.57
2019-01-03T15:59:30.711Z,44.23
2019-01-03T16:01:56.886Z,22.10
2019-01-03T16:04:23.066Z,31.97
2019-01-03T16:06:49.265Z,30.17
2019-01-03T16:09:15.419Z,26.20
2019-01-03T16:11:41.571Z,26.23
2019-01-03T16:14:07.766Z,19.57
2019-01-03T16:16:33.936Z,18.43
2019-01-03T16:19:00.101Z,23.17
2019-01-03T16:21:26.309Z,41.13
2019-01-03T16:23:52.776Z,27.90
2019-01-03T16:26:19.024Z,14.57
2019-01-03T16:28:45.316Z,27.17
2019-01-03T16:31:11.685Z,24.37
2019-01-03T16:33:37.851Z,28.57
2019-01-03T16:36:04.144Z,22.67
2019-01-03T16:38:30.304Z,22.97
2019-01-03T16:40:56.468Z,30.27
2019-01-03T16:43:22.670Z,20.67
2019-01-03T16:45:48.942Z,25.17
2019-01-03T16:48:56.540Z,22.47
2019-01-03T16:51:23.104Z,20.63
2019-01-03T16:53:49.374Z,33.57
2019-01-03T16:56:15.672Z,35.67
2019-01-03T16:58:41.967Z,35.10
2019-01-03T17:01:08.405Z,31.47
2019-01-03T17:03:34.609Z,21.73
2019-01-03T17:06:00.770Z,31.10
2019-01-03T17:08:27.028Z,27.43
2019-01-03T17:10:53.204Z,25.40
2019-01-03T17:13:19.387Z,21.27
2019-01-03T17:15:45.544Z,23.17
2019-01-03T17:18:11.744Z,27.73
2019-01-03T17:20:37.901Z,21.30
2019-01-03T17:23:04.066Z,27.67
2019-01-03T17:25:30.264Z,24.47
2019-01-03T17:27:56.422Z,25.60
2019-01-03T17:30:22.578Z,30.47
2019-01-03T17:32:48.815Z,27.20
2019-01-03T17:35:14.970Z,37.17
2019-01-03T17:37:41.127Z,27.60
2019-01-03T17:40:48.729Z,13.50
2019-01-03T17:43:14.893Z,29.57
2019-01-03T17:45:41.052Z,38.40
2019-01-03T17:48:07.352Z,38.47
2019-01-03T17:50:36.412Z,34.43
2019-01-03T17:53:14.719Z,27.73
2019-01-03T17:55:40.879Z,36.57
2019-01-03T17:58:07.145Z,43.17
2019-01-03T18:01:14.789Z,38.53
2019-01-03T18:03:41.096Z,35.33
2019-01-03T18:06:07.224Z,29.43
2019-01-03T18:11:26.947Z,37.90
2019-01-03T18:13:53.165Z,40.10
2019-01-03T18:16:19.453Z,39.07
2019-01-03T18:18:45.650Z,30.13
2019-01-03T18:24:19.234Z,39.43
2019-01-03T18:26:45.347Z,44.13
2019-01-03T18:29:11.620Z,26.70
2019-01-03T18:31:37.823Z,49.90
2019-01-03T18:34:17.036Z,43.30
2019-01-03T18:36:43.389Z,42.33
2019-01-03T18:42:17.012Z,37.73
2019-01-03T18:44:43.278Z,39.93
2019-01-03T18:52:57.527Z,27.30
2019-01-03T18:55:23.669Z,30.46
2019-01-03T18:57:49.827Z,39.63
2019-01-03T19:00:16.028Z,44.27
2019-01-03T19:02:42.186Z,24.70
2019-01-03T19:05:08.353Z,33.27
2019-01-03T19:07:34.539Z,34.50
2019-01-03T19:10:00.798Z,32.57
2019-01-03T19:12:26.968Z,32.13
2019-01-03T19:14:53.277Z,26.07
2019-01-03T19:17:19.434Z,28.30
2019-01-03T19:19:47.857Z,24.87
2019-01-03T19:22:14.042Z,21.70
2019-01-03T19:24:40.202Z,22.50
2019-01-03T19:27:06.607Z,24.93
2019-01-03T19:29:33.346Z,27.17
2019-01-03T19:31:59.816Z,24.43
2019-01-03T19:34:26.325Z,22.30
2019-01-03T19:36:52.730Z,26.87
2019-01-03T19:39:19.349Z,28.67
2019-01-03T19:41:45.810Z,18.80
2019-01-03T19:44:12.973Z,24.57
2019-01-03T19:46:39.491Z,29.03
2019-01-03T19:49:06.491Z,18.33
2019-01-03T19:51:33.678Z,17.90
2019-01-03T19:54:00.323Z,15.97
2019-01-03T19:56:26.776Z,22.57
2019-01-03T19:58:53.205Z,22.47
2019-01-03T20:01:19.584Z,25.77
2019-01-03T20:03:45.931Z,25.73
2019-01-03T20:06:12.541Z,24.33
2019-01-03T20:08:38.917Z,25.07
2019-01-03T20:11:05.200Z,30.23
2019-01-03T20:13:31.579Z,19.20
2019-01-03T20:15:57.737Z,18.87
2019-01-03T20:18:23.897Z,29.70
2019-01-03T20:20:53.077Z,27.93
2019-01-03T20:23:18.153Z,31.77
2019-01-03T20:25:44.410Z,27.40
2019-01-03T20:28:10.601Z,32.20
2019-01-03T20:30:36.751Z,31.43
2019-01-03T20:33:02.904Z,27.27
2019-01-03T20:35:29.138Z,30.43
2019-01-03T20:37:55.399Z,25.40
2019-01-03T20:40:21.551Z,27.97
2019-01-03T20:42:47.740Z,24.13
2019-01-03T20:45:13.905Z,17.67
2019-01-03T20:47:40.170Z,28.57
2019-01-03T20:50:47.764Z,29.53
2019-01-03T20:53:14.939Z,30.90
2019-01-03T20:55:41.112Z,31.97
2019-01-03T20:58:07.430Z,28.70
2019-01-03T21:00:33.689Z,24.20
2019-01-03T21:02:59.921Z,29.23
2019-01-03T21:05:26.231Z,32.97
2019-01-03T21:07:52.397Z,29.13
2019-01-03T21:10:18.549Z,36.63
2019-01-03T21:12:44.733Z,28.13
2019-01-03T21:15:52.289Z,12.47
2019-01-03T21:18:18.588Z,22.23
2019-01-03T21:20:44.748Z,24.13
2019-01-03T21:23:10.902Z,28.67
2019-01-03T21:25:37.092Z,31.17
2019-01-03T21:28:03.349Z,17.70
2019-01-03T21:30:29.522Z,15.33
2019-01-03T21:32:55.708Z,24.97
2019-01-03T21:35:21.871Z,24.13
2019-01-03T21:37:48.141Z,30.07
2019-01-03T21:40:14.340Z,27.57
2019-01-03T21:42:40.497Z,31.10
2019-01-03T21:45:06.853Z,31.37
2019-01-03T21:47:33.044Z,19.70
2019-01-03T21:49:59.197Z,33.27
2019-01-03T21:52:25.356Z,37.13
2019-01-03T21:54:51.536Z,30.90
2019-01-03T21:57:17.692Z,23.23
2019-01-03T21:59:43.957Z,29.97
2019-01-03T22:02:10.166Z,33.30
2019-01-03T22:04:36.338Z,35.97
2019-01-03T22:07:02.608Z,33.10
2019-01-03T22:09:28.802Z,32.07
2019-01-03T22:11:54.964Z,24.57
2019-01-03T22:14:21.240Z,33.57
2019-01-03T22:16:47.429Z,38.27
2019-01-03T22:19:13.592Z,17.70
2019-01-03T22:21:39.852Z,34.63
2019-01-03T22:24:06.043Z,30.13
2019-01-03T22:26:32.206Z,23.80
2019-01-03T22:28:58.820Z,24.30
2019-01-03T22:31:25.027Z,28.13
2019-01-03T22:33:51.281Z,19.33
2019-01-03T22:36:17.438Z,22.97
2019-01-03T22:38:43.681Z,31.47
2019-01-03T22:41:09.945Z,14.07
2019-01-03T22:43:36.098Z,24.73
2019-01-03T22:46:02.294Z,21.57
2019-01-03T22:48:28.451Z,19.17
2019-01-03T22:50:54.606Z,14.67
2019-01-03T22:53:20.801Z,18.17
2019-01-03T22:55:47.058Z,16.10
2019-01-03T22:58:13.336Z,24.00
2019-01-03T23:01:20.896Z,22.97
2019-01-03T23:04:06.808Z,24.70
2019-01-03T23:06:46.287Z,27.43
2019-01-03T23:09:12.446Z,22.20
2019-01-03T23:11:38.612Z,17.90
2019-01-03T23:14:04.805Z,16.77
2019-01-03T23:16:30.969Z,7.47
2019-01-03T23:18:57.124Z,15.73
2019-01-03T23:21:23.347Z,22.90
2019-01-03T23:23:49.608Z,17.13
2019-01-03T23:26:15.879Z,18.63
2019-01-03T23:28:42.068Z,24.03
2019-01-03T23:31:08.224Z,19.37
2019-01-03T23:33:34.386Z,9.37
2019-01-03T23:36:00.569Z,5.23
2019-01-03T23:38:26.726Z,18.93
2019-01-03T23:40:53.037Z,17.87
2019-01-03T23:43:19.227Z,18.07
2019-01-03T23:45:45.381Z,15.40
2019-01-03T23:48:11.534Z,10.90
2019-01-03T23:50:37.715Z,10.97
2019-01-03T23:53:03.863Z,10.77
